sensor_id;sensor_type;location;lat;lon;timestamp;pressure;altitude;pressure_sealevel;temperature
45034;BMP280;30771;47.988;-4.186;2023-02-20T07:00:35;100026.47;;;5.53
45034;BMP280;30771;47.988;-4.186;2023-02-20T07:03:00;100028.72;;;5.56
45034;BMP280;30771;47.988;-4.186;2023-02-20T07:05:25;100035.41;;;5.59
45034;BMP280;30771;47.988;-4.186;2023-02-20T07:07:50;100033.63;;;5.59
45034;BMP280;30771;47.988;-4.186;2023-02-20T07:10:16;100035.22;;;5.60
45034;BMP280;30771;47.988;-4.186;2023-02-20T07:12:41;100038.47;;;5.62
45034;BMP280;30771;47.988;-4.186;2023-02-20T07:15:06;100026.09;;;5.64
45034;BMP280;30771;47.988;-4.186;2023-02-20T07:17:32;100037.97;;;5.67
45034;BMP280;30771;47.988;-4.186;2023-02-20T07:19:57;100034.97;;;5.70
45034;BMP280;30771;47.988;-4.186;2023-02-20T07:22:22;100033.03;;;5.72
45034;BMP280;30771;47.988;-4.186;2023-02-20T07:24:51;100034.81;;;5.71
45034;BMP280;30771;47.988;-4.186;2023-02-20T07:27:16;100037.25;;;5.73
45034;BMP280;30771;47.988;-4.186;2023-02-20T07:29:43;100044.63;;;5.69
45034;BMP280;30771;47.988;-4.186;2023-02-20T07:32:08;100045.63;;;5.68
45034;BMP280;30771;47.988;-4.186;2023-02-20T07:34:33;100053.00;;;5.65
45034;BMP280;30771;47.988;-4.186;2023-02-20T07:36:59;100064.09;;;5.67
45034;BMP280;30771;47.988;-4.186;2023-02-20T07:39:24;100065.53;;;5.69
45034;BMP280;30771;47.988;-4.186;2023-02-20T07:41:49;100067.13;;;5.70
45034;BMP280;30771;47.988;-4.186;2023-02-20T07:44:14;100060.94;;;5.71
45034;BMP280;30771;47.988;-4.186;2023-02-20T07:46:39;100059.16;;;5.72
45034;BMP280;30771;47.988;-4.186;2023-02-20T07:49:05;100065.00;;;5.74
45034;BMP280;30771;47.988;-4.186;2023-02-20T07:51:30;100061.38;;;5.75
45034;BMP280;30771;47.988;-4.186;2023-02-20T07:53:56;100063.84;;;5.76
45034;BMP280;30771;47.988;-4.186;2023-02-20T07:56:21;100056.66;;;5.78
45034;BMP280;30771;47.988;-4.186;2023-02-20T07:58:46;100063.13;;;5.82
45034;BMP280;30771;47.988;-4.186;2023-02-20T08:01:12;100058.38;;;5.86
45034;BMP280;30771;47.988;-4.186;2023-02-20T08:03:37;100059.19;;;5.87
45034;BMP280;30771;47.988;-4.186;2023-02-20T08:06:02;100055.56;;;5.88
45034;BMP280;30771;47.988;-4.186;2023-02-20T08:08:28;100064.41;;;5.87
45034;BMP280;30771;47.988;-4.186;2023-02-20T08:10:53;100052.97;;;5.88
45034;BMP280;30771;47.988;-4.186;2023-02-20T08:13:18;100052.63;;;5.91
45034;BMP280;30771;47.988;-4.186;2023-02-20T08:15:43;100046.03;;;5.95
45034;BMP280;30771;47.988;-4.186;2023-02-20T08:18:08;100040.47;;;5.98
45034;BMP280;30771;47.988;-4.186;2023-02-20T08:20:34;100032.44;;;5.99
45034;BMP280;30771;47.988;-4.186;2023-02-20T08:22:59;100036.16;;;6.05
45034;BMP280;30771;47.988;-4.186;2023-02-20T08:25:24;100021.78;;;6.09
45034;BMP280;30771;47.988;-4.186;2023-02-20T08:27:49;100019.56;;;6.12
45034;BMP280;30771;47.988;-4.186;2023-02-20T08:30:22;100016.41;;;6.17
45034;BMP280;30771;47.988;-4.186;2023-02-20T08:32:48;100010.50;;;6.23
45034;BMP280;30771;47.988;-4.186;2023-02-20T08:35:13;100019.31;;;6.22
45034;BMP280;30771;47.988;-4.186;2023-02-20T08:37:38;100026.59;;;6.26
45034;BMP280;30771;47.988;-4.186;2023-02-20T08:40:04;100014.19;;;6.28
45034;BMP280;30771;47.988;-4.186;2023-02-20T08:42:29;100011.19;;;6.31
45034;BMP280;30771;47.988;-4.186;2023-02-20T08:44:54;100012.66;;;6.34
45034;BMP280;30771;47.988;-4.186;2023-02-20T08:47:19;100020.50;;;6.34
45034;BMP280;30771;47.988;-4.186;2023-02-20T08:49:45;100023.59;;;6.37
45034;BMP280;30771;47.988;-4.186;2023-02-20T08:52:11;100025.81;;;6.40
45034;BMP280;30771;47.988;-4.186;2023-02-20T08:54:36;100012.38;;;6.43
45034;BMP280;30771;47.988;-4.186;2023-02-20T08:57:01;100007.25;;;6.50
45034;BMP280;30771;47.988;-4.186;2023-02-20T08:59:26;100004.06;;;6.54
45034;BMP280;30771;47.988;-4.186;2023-02-20T09:01:54;99992.88;;;6.60
45034;BMP280;30771;47.988;-4.186;2023-02-20T09:04:20;99991.09;;;6.61
45034;BMP280;30771;47.988;-4.186;2023-02-20T09:06:45;99997.38;;;6.67
45034;BMP280;30771;47.988;-4.186;2023-02-20T09:09:10;99990.00;;;6.70
45034;BMP280;30771;47.988;-4.186;2023-02-20T09:11:35;99990.44;;;6.74
45034;BMP280;30771;47.988;-4.186;2023-02-20T09:14:00;99977.25;;;6.82
45034;BMP280;30771;47.988;-4.186;2023-02-20T09:16:25;99983.38;;;6.89
45034;BMP280;30771;47.988;-4.186;2023-02-20T09:18:50;99983.25;;;6.97
45034;BMP280;30771;47.988;-4.186;2023-02-20T09:21:17;99968.22;;;7.05
45034;BMP280;30771;47.988;-4.186;2023-02-20T09:23:43;99972.72;;;7.11
45034;BMP280;30771;47.988;-4.186;2023-02-20T09:26:08;99978.00;;;7.18
45034;BMP280;30771;47.988;-4.186;2023-02-20T09:28:33;99974.84;;;7.22
45034;BMP280;30771;47.988;-4.186;2023-02-20T09:30:58;99979.31;;;7.28
45034;BMP280;30771;47.988;-4.186;2023-02-20T09:33:24;99981.75;;;7.30
45034;BMP280;30771;47.988;-4.186;2023-02-20T09:35:49;99983.19;;;7.32
45034;BMP280;30771;47.988;-4.186;2023-02-20T09:38:14;99976.44;;;7.44
45034;BMP280;30771;47.988;-4.186;2023-02-20T09:40:39;99963.44;;;7.58
45034;BMP280;30771;47.988;-4.186;2023-02-20T09:45:57;99958.72;;;7.74
45034;BMP280;30771;47.988;-4.186;2023-02-20T09:48:30;99955.16;;;7.82
45034;BMP280;30771;47.988;-4.186;2023-02-20T09:51:04;99958.63;;;7.89
45034;BMP280;30771;47.988;-4.186;2023-02-20T09:53:32;99963.34;;;8.00
45034;BMP280;30771;47.988;-4.186;2023-02-20T09:55:58;99960.78;;;8.13
45034;BMP280;30771;47.988;-4.186;2023-02-20T10:00:52;99962.50;;;8.33
45034;BMP280;30771;47.988;-4.186;2023-02-20T10:03:25;99964.91;;;8.35
45034;BMP280;30771;47.988;-4.186;2023-02-20T10:05:52;99972.00;;;8.41
45034;BMP280;30771;47.988;-4.186;2023-02-20T10:08:19;99971.25;;;8.54
45034;BMP280;30771;47.988;-4.186;2023-02-20T10:10:47;99967.81;;;8.60
45034;BMP280;30771;47.988;-4.186;2023-02-20T10:18:37;99982.63;;;8.80
45034;BMP280;30771;47.988;-4.186;2023-02-20T10:21:48;99979.38;;;8.85
45034;BMP280;30771;47.988;-4.186;2023-02-20T10:23:57;99982.03;;;8.91
45034;BMP280;30771;47.988;-4.186;2023-02-20T10:26:27;99981.03;;;8.99
45034;BMP280;30771;47.988;-4.186;2023-02-20T10:28:54;99993.97;;;9.07
45034;BMP280;30771;47.988;-4.186;2023-02-20T10:41:32;100012.81;;;9.30
45034;BMP280;30771;47.988;-4.186;2023-02-20T10:48:59;100008.94;;;9.52
45034;BMP280;30771;47.988;-4.186;2023-02-20T10:51:26;100001.88;;;9.59
45034;BMP280;30771;47.988;-4.186;2023-02-20T10:53:59;100010.16;;;9.63
45034;BMP280;30771;47.988;-4.186;2023-02-20T10:58:56;100033.19;;;9.61
45034;BMP280;30771;47.988;-4.186;2023-02-20T11:01:23;100042.69;;;9.68
45034;BMP280;30771;47.988;-4.186;2023-02-20T11:06:18;100046.75;;;9.90
45034;BMP280;30771;47.988;-4.186;2023-02-20T11:08:44;100039.44;;;9.99
45034;BMP280;30771;47.988;-4.186;2023-02-20T11:11:19;100055.19;;;10.12
45034;BMP280;30771;47.988;-4.186;2023-02-20T11:13:45;100062.88;;;10.20
45034;BMP280;30771;47.988;-4.186;2023-02-20T11:16:11;100079.84;;;10.24
45034;BMP280;30771;47.988;-4.186;2023-02-20T11:18:41;100081.06;;;10.28
45034;BMP280;30771;47.988;-4.186;2023-02-20T11:21:07;100100.06;;;10.37
45034;BMP280;30771;47.988;-4.186;2023-02-20T11:23:33;100110.78;;;10.42
45034;BMP280;30771;47.988;-4.186;2023-02-20T11:26:41;100130.59;;;10.44
45034;BMP280;30771;47.988;-4.186;2023-02-20T11:29:02;100150.66;;;10.45
45034;BMP280;30771;47.988;-4.186;2023-02-20T11:31:28;100169.31;;;10.50
45034;BMP280;30771;47.988;-4.186;2023-02-20T11:33:54;100183.25;;;10.57
45034;BMP280;30771;47.988;-4.186;2023-02-20T11:36:21;100195.19;;;10.66
45034;BMP280;30771;47.988;-4.186;2023-02-20T11:38:47;100219.25;;;10.76
45034;BMP280;30771;47.988;-4.186;2023-02-20T11:41:28;100239.28;;;10.84
45034;BMP280;30771;47.988;-4.186;2023-02-20T11:46:33;100302.06;;;11.00
45034;BMP280;30771;47.988;-4.186;2023-02-20T11:49:00;100334.09;;;11.03
45034;BMP280;30771;47.988;-4.186;2023-02-20T11:51:33;100365.47;;;11.11
45034;BMP280;30771;47.988;-4.186;2023-02-20T11:59:28;100453.63;;;11.48
45034;BMP280;30771;47.988;-4.186;2023-02-20T12:01:54;100497.22;;;11.51
45034;BMP280;30771;47.988;-4.186;2023-02-20T12:04:21;100538.63;;;11.44
45034;BMP280;30771;47.988;-4.186;2023-02-20T12:06:47;100561.53;;;11.37
45034;BMP280;30771;47.988;-4.186;2023-02-20T12:09:16;100583.22;;;11.39
45034;BMP280;30771;47.988;-4.186;2023-02-20T12:11:42;100593.97;;;11.44
45034;BMP280;30771;47.988;-4.186;2023-02-20T12:14:11;100589.53;;;11.57
45034;BMP280;30771;47.988;-4.186;2023-02-20T12:16:44;100639.47;;;11.65
45034;BMP280;30771;47.988;-4.186;2023-02-20T12:19:18;100653.25;;;11.87
45034;BMP280;30771;47.988;-4.186;2023-02-20T12:21:53;100676.78;;;12.08
45034;BMP280;30771;47.988;-4.186;2023-02-20T12:26:54;100719.97;;;12.40
45034;BMP280;30771;47.988;-4.186;2023-02-20T12:31:57;100765.06;;;12.58
45034;BMP280;30771;47.988;-4.186;2023-02-20T12:36:57;100799.59;;;12.69
45034;BMP280;30771;47.988;-4.186;2023-02-20T12:42:02;100814.63;;;12.69
45034;BMP280;30771;47.988;-4.186;2023-02-20T12:47:01;100843.91;;;12.54
45034;BMP280;30771;47.988;-4.186;2023-02-20T12:56:48;100837.34;;;11.85
45034;BMP280;30771;47.988;-4.186;2023-02-20T13:01:50;100816.41;;;11.77
45034;BMP280;30771;47.988;-4.186;2023-02-20T13:04:22;100816.19;;;11.72
45034;BMP280;30771;47.988;-4.186;2023-02-20T13:07:03;100813.09;;;11.62
45034;BMP280;30771;47.988;-4.186;2023-02-20T13:09:43;100809.81;;;11.53
45034;BMP280;30771;47.988;-4.186;2023-02-20T13:12:10;100803.31;;;11.49
45034;BMP280;30771;47.988;-4.186;2023-02-20T13:17:27;100782.44;;;11.54
45034;BMP280;30771;47.988;-4.186;2023-02-20T13:22:18;100775.75;;;11.58
45034;BMP280;30771;47.988;-4.186;2023-02-20T13:24:44;100784.88;;;11.56
45034;BMP280;30771;47.988;-4.186;2023-02-20T13:27:09;100780.41;;;11.50
45034;BMP280;30771;47.988;-4.186;2023-02-20T13:29:36;100773.91;;;11.52
45034;BMP280;30771;47.988;-4.186;2023-02-20T13:32:20;100765.22;;;11.58
45034;BMP280;30771;47.988;-4.186;2023-02-20T13:34:46;100755.53;;;11.65
45034;BMP280;30771;47.988;-4.186;2023-02-20T13:39:55;100761.63;;;11.72
45034;BMP280;30771;47.988;-4.186;2023-02-20T13:42:31;100744.97;;;11.78
45034;BMP280;30771;47.988;-4.186;2023-02-20T13:44:56;100744.78;;;11.86
45034;BMP280;30771;47.988;-4.186;2023-02-20T13:57:33;100741.53;;;11.97
45034;BMP280;30771;47.988;-4.186;2023-02-20T14:02:50;100731.63;;;11.99
45034;BMP280;30771;47.988;-4.186;2023-02-20T14:05:19;100730.19;;;11.97
45034;BMP280;30771;47.988;-4.186;2023-02-20T14:07:45;100728.53;;;11.96
45034;BMP280;30771;47.988;-4.186;2023-02-20T14:10:15;100724.91;;;11.97
45034;BMP280;30771;47.988;-4.186;2023-02-20T14:12:41;100722.25;;;11.97
45034;BMP280;30771;47.988;-4.186;2023-02-20T14:15:07;100729.16;;;11.98
45034;BMP280;30771;47.988;-4.186;2023-02-20T14:17:32;100724.31;;;12.01
45034;BMP280;30771;47.988;-4.186;2023-02-20T14:19:58;100726.13;;;12.07
45034;BMP280;30771;47.988;-4.186;2023-02-20T14:22:29;100738.06;;;12.10
45034;BMP280;30771;47.988;-4.186;2023-02-20T14:25:16;100737.88;;;12.11
45034;BMP280;30771;47.988;-4.186;2023-02-20T14:27:42;100733.22;;;12.13
45034;BMP280;30771;47.988;-4.186;2023-02-20T14:32:36;100731.78;;;12.17
45034;BMP280;30771;47.988;-4.186;2023-02-20T14:37:53;100739.91;;;12.16
45034;BMP280;30771;47.988;-4.186;2023-02-20T14:40:41;100741.53;;;12.17
45034;BMP280;30771;47.988;-4.186;2023-02-20T14:43:16;100737.28;;;12.16
45034;BMP280;30771;47.988;-4.186;2023-02-20T14:45:42;100743.16;;;12.18
45034;BMP280;30771;47.988;-4.186;2023-02-20T14:48:16;100743.78;;;12.20
45034;BMP280;30771;47.988;-4.186;2023-02-20T14:50:41;100742.78;;;12.21
45034;BMP280;30771;47.988;-4.186;2023-02-20T14:53:11;100738.31;;;12.22
45034;BMP280;30771;47.988;-4.186;2023-02-20T14:55:37;100739.09;;;12.22
45034;BMP280;30771;47.988;-4.186;2023-02-20T14:58:20;100739.31;;;12.21
45034;BMP280;30771;47.988;-4.186;2023-02-20T15:00:46;100737.88;;;12.25
45034;BMP280;30771;47.988;-4.186;2023-02-20T15:03:24;100737.06;;;12.24
45034;BMP280;30771;47.988;-4.186;2023-02-20T15:05:50;100733.41;;;12.25
45034;BMP280;30771;47.988;-4.186;2023-02-20T15:10:49;100729.34;;;12.29
45034;BMP280;30771;47.988;-4.186;2023-02-20T15:13:17;100724.69;;;12.31
45034;BMP280;30771;47.988;-4.186;2023-02-20T15:15:46;100715.53;;;12.34
45034;BMP280;30771;47.988;-4.186;2023-02-20T15:18:13;100711.69;;;12.36
45034;BMP280;30771;47.988;-4.186;2023-02-20T15:20:40;100709.81;;;12.37
45034;BMP280;30771;47.988;-4.186;2023-02-20T15:25:38;100702.94;;;12.42
45034;BMP280;30771;47.988;-4.186;2023-02-20T15:30:28;100700.88;;;12.44
45034;BMP280;30771;47.988;-4.186;2023-02-20T15:32:53;100701.69;;;12.45
45034;BMP280;30771;47.988;-4.186;2023-02-20T15:35:19;100703.94;;;12.48
45034;BMP280;30771;47.988;-4.186;2023-02-20T15:37:45;100701.09;;;12.49
45034;BMP280;30771;47.988;-4.186;2023-02-20T15:40:30;100696.19;;;12.53
45034;BMP280;30771;47.988;-4.186;2023-02-20T15:42:56;100692.72;;;12.52
45034;BMP280;30771;47.988;-4.186;2023-02-20T15:45:25;100685.63;;;12.53
45034;BMP280;30771;47.988;-4.186;2023-02-20T15:47:50;100684.41;;;12.55
45034;BMP280;30771;47.988;-4.186;2023-02-20T15:50:15;100689.28;;;12.52
45034;BMP280;30771;47.988;-4.186;2023-02-20T15:52:41;100687.88;;;12.49
45034;BMP280;30771;47.988;-4.186;2023-02-20T15:55:09;100677.50;;;12.54
45034;BMP280;30771;47.988;-4.186;2023-02-20T15:57:37;100670.78;;;12.58
45034;BMP280;30771;47.988;-4.186;2023-02-20T16:00:03;100663.66;;;12.59
45034;BMP280;30771;47.988;-4.186;2023-02-20T16:02:28;100666.94;;;12.61
45034;BMP280;30771;47.988;-4.186;2023-02-20T16:04:53;100668.94;;;12.65
45034;BMP280;30771;47.988;-4.186;2023-02-20T16:07:19;100669.53;;;12.67
45034;BMP280;30771;47.988;-4.186;2023-02-20T16:09:44;100659.97;;;12.73
45034;BMP280;30771;47.988;-4.186;2023-02-20T16:12:12;100662.56;;;12.79
45034;BMP280;30771;47.988;-4.186;2023-02-20T16:14:38;100667.84;;;12.79
45034;BMP280;30771;47.988;-4.186;2023-02-20T16:17:03;100668.69;;;12.80
45034;BMP280;30771;47.988;-4.186;2023-02-20T16:19:29;100665.00;;;12.81
45034;BMP280;30771;47.988;-4.186;2023-02-20T16:21:54;100676.78;;;12.78
45034;BMP280;30771;47.988;-4.186;2023-02-20T16:24:19;100662.78;;;12.78
45034;BMP280;30771;47.988;-4.186;2023-02-20T16:26:45;100679.25;;;12.73
45034;BMP280;30771;47.988;-4.186;2023-02-20T16:29:16;100696.31;;;12.71
45034;BMP280;30771;47.988;-4.186;2023-02-20T16:34:19;100696.09;;;12.79
45034;BMP280;30771;47.988;-4.186;2023-02-20T16:36:44;100686.34;;;12.79
45034;BMP280;30771;47.988;-4.186;2023-02-20T16:39:09;100692.28;;;12.75
45034;BMP280;30771;47.988;-4.186;2023-02-20T16:41:34;100687.19;;;12.73
45034;BMP280;30771;47.988;-4.186;2023-02-20T16:44:00;100688.38;;;12.71
45034;BMP280;30771;47.988;-4.186;2023-02-20T16:46:27;100683.56;;;12.68
45034;BMP280;30771;47.988;-4.186;2023-02-20T16:48:52;100682.34;;;12.64
45034;BMP280;30771;47.988;-4.186;2023-02-20T16:51:17;100672.38;;;12.59
45034;BMP280;30771;47.988;-4.186;2023-02-20T16:53:43;100669.13;;;12.57
45034;BMP280;30771;47.988;-4.186;2023-02-20T16:56:08;100677.69;;;12.53
45034;BMP280;30771;47.988;-4.186;2023-02-20T16:58:33;100666.34;;;12.46
45034;BMP280;30771;47.988;-4.186;2023-02-20T17:00:58;100666.34;;;12.39
45034;BMP280;30771;47.988;-4.186;2023-02-20T17:03:23;100663.53;;;12.34
45034;BMP280;30771;47.988;-4.186;2023-02-20T17:05:49;100656.44;;;12.28
45034;BMP280;30771;47.988;-4.186;2023-02-20T17:08:14;100654.63;;;12.22
45034;BMP280;30771;47.988;-4.186;2023-02-20T17:10:39;100640.63;;;12.15
45034;BMP280;30771;47.988;-4.186;2023-02-20T17:13:04;100633.72;;;12.07
45034;BMP280;30771;47.988;-4.186;2023-02-20T17:15:29;100626.03;;;11.99
45034;BMP280;30771;47.988;-4.186;2023-02-20T17:17:54;100617.50;;;11.91
45034;BMP280;30771;47.988;-4.186;2023-02-20T17:20:21;100606.53;;;11.81
45034;BMP280;30771;47.988;-4.186;2023-02-20T17:22:47;100591.97;;;11.72
45034;BMP280;30771;47.988;-4.186;2023-02-20T17:25:13;100574.91;;;11.61
45034;BMP280;30771;47.988;-4.186;2023-02-20T17:27:38;100566.59;;;11.45
45034;BMP280;30771;47.988;-4.186;2023-02-20T17:30:04;100543.31;;;11.29
45034;BMP280;30771;47.988;-4.186;2023-02-20T17:32:29;100513.88;;;11.12
45034;BMP280;30771;47.988;-4.186;2023-02-20T17:34:54;100488.72;;;10.96
45034;BMP280;30771;47.988;-4.186;2023-02-20T17:37:20;100449.16;;;10.83
45034;BMP280;30771;47.988;-4.186;2023-02-20T17:39:45;100419.81;;;10.73
45034;BMP280;30771;47.988;-4.186;2023-02-20T17:42:11;100383.53;;;10.62
45034;BMP280;30771;47.988;-4.186;2023-02-20T17:44:36;100360.03;;;10.54
45034;BMP280;30771;47.988;-4.186;2023-02-20T17:47:01;100329.66;;;10.45
45034;BMP280;30771;47.988;-4.186;2023-02-20T17:49:27;100301.88;;;10.36
45034;BMP280;30771;47.988;-4.186;2023-02-20T17:51:53;100281.66;;;10.30
45034;BMP280;30771;47.988;-4.186;2023-02-20T17:54:18;100258.56;;;10.19
45034;BMP280;30771;47.988;-4.186;2023-02-20T17:56:44;100231.06;;;10.08
45034;BMP280;30771;47.988;-4.186;2023-02-20T17:59:09;100203.91;;;9.95
45034;BMP280;30771;47.988;-4.186;2023-02-20T18:01:35;100182.84;;;9.82
45034;BMP280;30771;47.988;-4.186;2023-02-20T18:04:00;100152.28;;;9.68
45034;BMP280;30771;47.988;-4.186;2023-02-20T18:06:28;100129.63;;;9.60
45034;BMP280;30771;47.988;-4.186;2023-02-20T18:08:53;100118.13;;;9.55
45034;BMP280;30771;47.988;-4.186;2023-02-20T18:11:18;100108.63;;;9.47
45034;BMP280;30771;47.988;-4.186;2023-02-20T18:13:44;100078.28;;;9.38
45034;BMP280;30771;47.988;-4.186;2023-02-20T18:16:09;100055.03;;;9.29
45034;BMP280;30771;47.988;-4.186;2023-02-20T18:18:34;100026.53;;;9.19
45034;BMP280;30771;47.988;-4.186;2023-02-20T18:20:59;99986.53;;;9.10
45034;BMP280;30771;47.988;-4.186;2023-02-20T18:23:24;99947.91;;;9.04
45034;BMP280;30771;47.988;-4.186;2023-02-20T18:25:50;99910.94;;;8.99
45034;BMP280;30771;47.988;-4.186;2023-02-20T18:28:15;99885.91;;;8.97
45034;BMP280;30771;47.988;-4.186;2023-02-20T18:30:40;99871.78;;;8.98
45034;BMP280;30771;47.988;-4.186;2023-02-20T18:33:05;99861.28;;;8.98
45034;BMP280;30771;47.988;-4.186;2023-02-20T18:35:31;99836.00;;;8.97
45034;BMP280;30771;47.988;-4.186;2023-02-20T18:37:56;99829.94;;;8.96
45034;BMP280;30771;47.988;-4.186;2023-02-20T18:40:21;99815.44;;;8.94
45034;BMP280;30771;47.988;-4.186;2023-02-20T18:42:46;99815.63;;;8.92
45034;BMP280;30771;47.988;-4.186;2023-02-20T18:45:11;99805.53;;;8.89
45034;BMP280;30771;47.988;-4.186;2023-02-20T18:47:37;99801.47;;;8.87
45034;BMP280;30771;47.988;-4.186;2023-02-20T18:50:02;99798.25;;;8.85
45034;BMP280;30771;47.988;-4.186;2023-02-20T18:52:27;99785.38;;;8.83
45034;BMP280;30771;47.988;-4.186;2023-02-20T18:54:52;99766.19;;;8.83
45034;BMP280;30771;47.988;-4.186;2023-02-20T18:57:17;99755.88;;;8.81
45034;BMP280;30771;47.988;-4.186;2023-02-20T18:59:43;99748.00;;;8.81
45034;BMP280;30771;47.988;-4.186;2023-02-20T19:02:11;99745.38;;;8.81
45034;BMP280;30771;47.988;-4.186;2023-02-20T19:04:37;99735.28;;;8.78
45034;BMP280;30771;47.988;-4.186;2023-02-20T19:07:02;99734.66;;;8.76
45034;BMP280;30771;47.988;-4.186;2023-02-20T19:09:27;99726.22;;;8.74
45034;BMP280;30771;47.988;-4.186;2023-02-20T19:11:56;99729.03;;;8.73
45034;BMP280;30771;47.988;-4.186;2023-02-20T19:14:21;99726.00;;;8.69
45034;BMP280;30771;47.988;-4.186;2023-02-20T19:16:47;99726.41;;;8.66
45034;BMP280;30771;47.988;-4.186;2023-02-20T19:19:19;99713.72;;;8.63
45034;BMP280;30771;47.988;-4.186;2023-02-20T19:21:46;99698.16;;;8.62
45034;BMP280;30771;47.988;-4.186;2023-02-20T19:24:11;99696.75;;;8.59
45034;BMP280;30771;47.988;-4.186;2023-02-20T19:26:36;99697.38;;;8.55
45034;BMP280;30771;47.988;-4.186;2023-02-20T19:29:01;99695.16;;;8.52
45034;BMP280;30771;47.988;-4.186;2023-02-20T19:31:26;99693.53;;;8.51
45034;BMP280;30771;47.988;-4.186;2023-02-20T19:33:52;99692.13;;;8.48
45034;BMP280;30771;47.988;-4.186;2023-02-20T19:36:17;99692.53;;;8.45
45034;BMP280;30771;47.988;-4.186;2023-02-20T19:38:42;99678.00;;;8.43
45034;BMP280;30771;47.988;-4.186;2023-02-20T19:41:07;99678.22;;;8.41
45034;BMP280;30771;47.988;-4.186;2023-02-20T19:43:35;99674.16;;;8.39
45034;BMP280;30771;47.988;-4.186;2023-02-20T19:46:00;99676.19;;;8.37
45034;BMP280;30771;47.988;-4.186;2023-02-20T19:48:26;99678.22;;;8.34
45034;BMP280;30771;47.988;-4.186;2023-02-20T19:50:51;99677.44;;;8.34
45034;BMP280;30771;47.988;-4.186;2023-02-20T19:53:16;99677.59;;;8.32
45034;BMP280;30771;47.988;-4.186;2023-02-20T19:55:41;99671.56;;;8.32
45034;BMP280;30771;47.988;-4.186;2023-02-20T19:58:06;99662.06;;;8.31
45034;BMP280;30771;47.988;-4.186;2023-02-20T20:00:32;99663.88;;;8.30
45034;BMP280;30771;47.988;-4.186;2023-02-20T20:02:57;99663.88;;;8.30
45034;BMP280;30771;47.988;-4.186;2023-02-20T20:05:22;99661.25;;;8.30
45034;BMP280;30771;47.988;-4.186;2023-02-20T20:07:48;99656.84;;;8.31
45034;BMP280;30771;47.988;-4.186;2023-02-20T20:10:13;99656.84;;;8.31
45034;BMP280;30771;47.988;-4.186;2023-02-20T20:12:38;99655.03;;;8.31
45034;BMP280;30771;47.988;-4.186;2023-02-20T20:15:03;99658.63;;;8.30
45034;BMP280;30771;47.988;-4.186;2023-02-20T20:17:29;99659.66;;;8.29
45034;BMP280;30771;47.988;-4.186;2023-02-20T20:19:54;99658.84;;;8.29
45034;BMP280;30771;47.988;-4.186;2023-02-20T20:22:19;99663.28;;;8.28
45034;BMP280;30771;47.988;-4.186;2023-02-20T20:24:44;99663.28;;;8.28
45034;BMP280;30771;47.988;-4.186;2023-02-20T20:27:09;99664.91;;;8.29
45034;BMP280;30771;47.988;-4.186;2023-02-20T20:29:34;99661.25;;;8.30
45034;BMP280;30771;47.988;-4.186;2023-02-20T20:31:59;99659.44;;;8.31
45034;BMP280;30771;47.988;-4.186;2023-02-20T20:34:25;99657.44;;;8.33
45034;BMP280;30771;47.988;-4.186;2023-02-20T20:36:50;99655.63;;;8.33
45034;BMP280;30771;47.988;-4.186;2023-02-20T20:39:15;99657.22;;;8.34
45034;BMP280;30771;47.988;-4.186;2023-02-20T20:41:41;99652.78;;;8.35
45034;BMP280;30771;47.988;-4.186;2023-02-20T20:44:06;99662.06;;;8.38
45034;BMP280;30771;47.988;-4.186;2023-02-20T20:46:35;99652.16;;;8.40
45034;BMP280;30771;47.988;-4.186;2023-02-20T20:49:00;99649.38;;;8.41
45034;BMP280;30771;47.988;-4.186;2023-02-20T20:51:25;99651.59;;;8.44
45034;BMP280;30771;47.988;-4.186;2023-02-20T20:53:50;99645.31;;;8.45
45034;BMP280;30771;47.988;-4.186;2023-02-20T20:56:15;99652.16;;;8.46
45034;BMP280;30771;47.988;-4.186;2023-02-20T20:58:40;99646.09;;;8.46
45034;BMP280;30771;47.988;-4.186;2023-02-20T21:01:06;99638.25;;;8.46
45034;BMP280;30771;47.988;-4.186;2023-02-20T21:03:31;99640.66;;;8.47
45034;BMP280;30771;47.988;-4.186;2023-02-20T21:05:56;99637.25;;;8.47
45034;BMP280;30771;47.988;-4.186;2023-02-20T21:08:21;99634.63;;;8.47
45034;BMP280;30771;47.988;-4.186;2023-02-20T21:10:46;99628.34;;;8.48
45034;BMP280;30771;47.988;-4.186;2023-02-20T21:13:11;99632.78;;;8.47
45034;BMP280;30771;47.988;-4.186;2023-02-20T21:15:37;99633.81;;;8.46
45034;BMP280;30771;47.988;-4.186;2023-02-20T21:18:02;99632.22;;;8.45
45034;BMP280;30771;47.988;-4.186;2023-02-20T21:20:28;99640.06;;;8.45
45034;BMP280;30771;47.988;-4.186;2023-02-20T21:22:54;99628.97;;;8.43
45034;BMP280;30771;47.988;-4.186;2023-02-20T21:25:20;99622.75;;;8.44
45034;BMP280;30771;47.988;-4.186;2023-02-20T21:27:45;99628.78;;;8.45
45034;BMP280;30771;47.988;-4.186;2023-02-20T21:30:11;99625.38;;;8.44
45034;BMP280;30771;47.988;-4.186;2023-02-20T21:32:36;99615.25;;;8.41
45034;BMP280;30771;47.988;-4.186;2023-02-20T21:35:01;99603.16;;;8.40
45034;BMP280;30771;47.988;-4.186;2023-02-20T21:37:26;99600.53;;;8.40
45034;BMP280;30771;47.988;-4.186;2023-02-20T21:39:52;99596.31;;;8.39
45034;BMP280;30771;47.988;-4.186;2023-02-20T21:42:17;99596.31;;;8.39
45034;BMP280;30771;47.988;-4.186;2023-02-20T21:44:45;99590.44;;;8.37
45034;BMP280;30771;47.988;-4.186;2023-02-20T21:47:10;99585.19;;;8.37
45034;BMP280;30771;47.988;-4.186;2023-02-20T21:49:36;99589.44;;;8.38
45034;BMP280;30771;47.988;-4.186;2023-02-20T21:52:06;99583.38;;;8.38
45034;BMP280;30771;47.988;-4.186;2023-02-20T21:54:31;99578.34;;;8.36
45034;BMP280;30771;47.988;-4.186;2023-02-20T21:56:57;99587.03;;;8.37
45034;BMP280;30771;47.988;-4.186;2023-02-20T21:59:23;99581.97;;;8.35
45034;BMP280;30771;47.988;-4.186;2023-02-20T22:01:48;99579.38;;;8.35
45034;BMP280;30771;47.988;-4.186;2023-02-20T22:04:13;99570.47;;;8.36
45034;BMP280;30771;47.988;-4.186;2023-02-20T22:06:39;99568.06;;;8.34
45034;BMP280;30771;47.988;-4.186;2023-02-20T22:09:05;99570.06;;;8.32
45034;BMP280;30771;47.988;-4.186;2023-02-20T22:11:31;99573.72;;;8.31
45034;BMP280;30771;47.988;-4.186;2023-02-20T22:13:56;99570.28;;;8.31
45034;BMP280;30771;47.988;-4.186;2023-02-20T22:16:21;99559.19;;;8.29
45034;BMP280;30771;47.988;-4.186;2023-02-20T22:18:46;99560.19;;;8.28
45034;BMP280;30771;47.988;-4.186;2023-02-20T22:21:16;99555.97;;;8.27
45034;BMP280;30771;47.988;-4.186;2023-02-20T22:23:41;99558.78;;;8.25
45034;BMP280;30771;47.988;-4.186;2023-02-20T22:26:06;99554.59;;;8.24
45034;BMP280;30771;47.988;-4.186;2023-02-20T22:28:31;99554.78;;;8.23
45034;BMP280;30771;47.988;-4.186;2023-02-20T22:30:58;99550.34;;;8.23